sensor_id;sensor_type;location;lat;lon;timestamp;pressure;altitude;pressure_sealevel;temperature;humidity
76586;BME280;65251;51.022;13.736;2023-07-31T00:00:08;99094.69;;;16.99;61.60
76586;BME280;65251;51.022;13.736;2023-07-31T00:00:39;99093.09;;;16.98;62.75
76586;BME280;65251;51.022;13.736;2023-07-31T00:01:10;99094.69;;;16.99;62.10
76586;BME280;65251;51.022;13.736;2023-07-31T00:01:41;99097.66;;;16.97;61.61
76586;BME280;65251;51.022;13.736;2023-07-31T00:02:12;99092.50;;;16.96;62.70
76586;BME280;65251;51.022;13.736;2023-07-31T00:02:43;99099.53;;;16.97;62.51
76586;BME280;65251;51.022;13.736;2023-07-31T00:03:14;99098.47;;;16.98;62.35
76586;BME280;65251;51.022;13.736;2023-07-31T00:03:45;99101.97;;;16.98;62.23
76586;BME280;65251;51.022;13.736;2023-07-31T00:04:16;99095.78;;;16.98;61.86
76586;BME280;65251;51.022;13.736;2023-07-31T00:04:48;99102.22;;;16.97;61.31
76586;BME280;65251;51.022;13.736;2023-07-31T00:05:20;99095.22;;;16.96;62.21
76586;BME280;65251;51.022;13.736;2023-07-31T00:05:51;99100.34;;;16.97;61.49
76586;BME280;65251;51.022;13.736;2023-07-31T00:06:22;99095.78;;;16.98;60.98
76586;BME280;65251;51.022;13.736;2023-07-31T00:06:52;99100.34;;;16.97;61.29
76586;BME280;65251;51.022;13.736;2023-07-31T00:07:24;99091.44;;;16.97;61.97
76586;BME280;65251;51.022;13.736;2023-07-31T00:07:55;99096.03;;;16.96;61.80
76586;BME280;65251;51.022;13.736;2023-07-31T00:08:26;99098.72;;;16.96;61.95
76586;BME280;65251;51.022;13.736;2023-07-31T00:08:56;99102.22;;;16.97;61.22
76586;BME280;65251;51.022;13.736;2023-07-31T00:09:28;99095.78;;;16.98;61.96
76586;BME280;65251;51.022;13.736;2023-07-31T00:09:59;99101.66;;;16.95;61.43
76586;BME280;65251;51.022;13.736;2023-07-31T00:10:30;99097.34;;;16.94;61.14
76586;BME280;65251;51.022;13.736;2023-07-31T00:11:00;99091.69;;;16.95;62.02
76586;BME280;65251;51.022;13.736;2023-07-31T00:11:32;99097.34;;;16.94;61.16
76586;BME280;65251;51.022;13.736;2023-07-31T00:12:04;99103.28;;;16.96;61.91
76586;BME280;65251;51.022;13.736;2023-07-31T00:12:35;99097.91;;;16.96;60.85
76586;BME280;65251;51.022;13.736;2023-07-31T00:13:05;99098.47;;;16.98;61.28
76586;BME280;65251;51.022;13.736;2023-07-31T00:13:37;99097.38;;;16.99;61.82
76586;BME280;65251;51.022;13.736;2023-07-31T00:14:08;99094.97;;;16.97;62.67
76586;BME280;65251;51.022;13.736;2023-07-31T00:14:39;99098.19;;;16.99;60.78
76586;BME280;65251;51.022;13.736;2023-07-31T00:15:10;99093.91;;;16.98;61.16
76586;BME280;65251;51.022;13.736;2023-07-31T00:15:41;99097.91;;;16.96;62.58
76586;BME280;65251;51.022;13.736;2023-07-31T00:16:12;99100.34;;;16.97;61.25
76586;BME280;65251;51.022;13.736;2023-07-31T00:16:43;99097.66;;;16.97;62.91
76586;BME280;65251;51.022;13.736;2023-07-31T00:17:16;99091.44;;;16.97;62.47
76586;BME280;65251;51.022;13.736;2023-07-31T00:17:47;99097.66;;;16.97;60.87
76586;BME280;65251;51.022;13.736;2023-07-31T00:18:18;99096.59;;;16.98;61.10
76586;BME280;65251;51.022;13.736;2023-07-31T00:18:49;99099.53;;;16.97;62.09
76586;BME280;65251;51.022;13.736;2023-07-31T00:19:19;99094.97;;;16.97;61.79
76586;BME280;65251;51.022;13.736;2023-07-31T00:19:52;99097.66;;;16.97;62.46
76586;BME280;65251;51.022;13.736;2023-07-31T00:20:24;99102.75;;;16.99;60.76
76586;BME280;65251;51.022;13.736;2023-07-31T00:20:55;99100.88;;;16.99;61.43
76586;BME280;65251;51.022;13.736;2023-07-31T00:21:25;99097.66;;;16.97;62.16
76586;BME280;65251;51.022;13.736;2023-07-31T00:21:57;99095.78;;;16.98;62.21
76586;BME280;65251;51.022;13.736;2023-07-31T00:22:28;99098.47;;;16.98;62.43
76586;BME280;65251;51.022;13.736;2023-07-31T00:22:58;99094.16;;;16.97;61.12
76586;BME280;65251;51.022;13.736;2023-07-31T00:23:29;99096.31;;;17.00;61.25
76586;BME280;65251;51.022;13.736;2023-07-31T00:24:01;99093.91;;;16.98;61.62
76586;BME280;65251;51.022;13.736;2023-07-31T00:24:32;99099.00;;;17.00;60.60
76586;BME280;65251;51.022;13.736;2023-07-31T00:25:03;99096.59;;;16.98;61.52
76586;BME280;65251;51.022;13.736;2023-07-31T00:25:36;99100.88;;;16.99;61.73
76586;BME280;65251;51.022;13.736;2023-07-31T00:26:07;99099.53;;;16.97;62.30
76586;BME280;65251;51.022;13.736;2023-07-31T00:26:38;99100.88;;;16.99;61.82
76586;BME280;65251;51.022;13.736;2023-07-31T00:27:08;99092.56;;;17.01;60.83
76586;BME280;65251;51.022;13.736;2023-07-31T00:27:40;99095.00;;;17.02;60.10
76586;BME280;65251;51.022;13.736;2023-07-31T00:28:14;99096.31;;;17.00;61.42
76586;BME280;65251;51.022;13.736;2023-07-31T00:28:45;99085.28;;;17.01;60.78
76586;BME280;65251;51.022;13.736;2023-07-31T00:29:16;99100.94;;;17.04;60.65
76586;BME280;65251;51.022;13.736;2023-07-31T00:29:47;99089.63;;;17.02;61.97
76586;BME280;65251;51.022;13.736;2023-07-31T00:30:18;99091.50;;;17.02;61.75
76586;BME280;65251;51.022;13.736;2023-07-31T00:30:49;99089.63;;;17.02;61.64
76586;BME280;65251;51.022;13.736;2023-07-31T00:31:20;99091.25;;;17.03;61.95
76586;BME280;65251;51.022;13.736;2023-07-31T00:31:51;99096.38;;;17.05;61.80
76586;BME280;65251;51.022;13.736;2023-07-31T00:32:22;99090.19;;;17.04;61.29
76586;BME280;65251;51.022;13.736;2023-07-31T00:32:53;99090.44;;;17.03;60.59
76586;BME280;65251;51.022;13.736;2023-07-31T00:33:23;99096.63;;;17.03;60.88
76586;BME280;65251;51.022;13.736;2023-07-31T00:33:55;99095.31;;;17.06;61.33
76586;BME280;65251;51.022;13.736;2023-07-31T00:34:26;99098.00;;;17.06;60.90
76586;BME280;65251;51.022;13.736;2023-07-31T00:34:58;99091.00;;;17.05;60.94
76586;BME280;65251;51.022;13.736;2023-07-31T00:35:29;99088.56;;;17.03;60.33
76586;BME280;65251;51.022;13.736;2023-07-31T00:36:01;99093.69;;;17.05;61.18
76586;BME280;65251;51.022;13.736;2023-07-31T00:36:32;99093.13;;;17.03;60.64
76586;BME280;65251;51.022;13.736;2023-07-31T00:37:03;99093.94;;;17.03;60.09
76586;BME280;65251;51.022;13.736;2023-07-31T00:37:33;99095.31;;;17.06;61.29
76586;BME280;65251;51.022;13.736;2023-07-31T00:38:05;99087.50;;;17.04;61.04
76586;BME280;65251;51.022;13.736;2023-07-31T00:38:36;99084.53;;;17.06;60.42
76586;BME280;65251;51.022;13.736;2023-07-31T00:39:07;99083.72;;;17.05;60.41
76586;BME280;65251;51.022;13.736;2023-07-31T00:44:08;99078.03;;;17.02;60.10
76586;BME280;65251;51.022;13.736;2023-07-31T00:44:39;99089.13;;;17.05;61.06
76586;BME280;65251;51.022;13.736;2023-07-31T00:45:10;99086.19;;;17.07;60.34
76586;BME280;65251;51.022;13.736;2023-07-31T00:45:41;99078.91;;;17.07;60.14
76586;BME280;65251;51.022;13.736;2023-07-31T00:46:13;99079.72;;;17.08;61.23
76586;BME280;65251;51.022;13.736;2023-07-31T00:46:44;99077.28;;;17.06;61.38
76586;BME280;65251;51.022;13.736;2023-07-31T00:47:15;99078.09;;;17.07;61.30
76586;BME280;65251;51.022;13.736;2023-07-31T00:47:45;99074.53;;;17.01;62.16
76586;BME280;65251;51.022;13.736;2023-07-31T00:48:17;99076.16;;;17.02;62.51
76586;BME280;65251;51.022;13.736;2023-07-31T00:48:49;99070.78;;;17.02;60.56
76586;BME280;65251;51.022;13.736;2023-07-31T00:49:20;99085.03;;;17.03;61.26
76586;BME280;65251;51.022;13.736;2023-07-31T00:49:52;99072.41;;;17.03;61.00
76586;BME280;65251;51.022;13.736;2023-07-31T00:50:27;99081.78;;;17.01;60.73
76586;BME280;65251;51.022;13.736;2023-07-31T00:50:58;99085.28;;;17.01;60.46
76586;BME280;65251;51.022;13.736;2023-07-31T00:51:29;99080.97;;;17.00;61.28
76586;BME280;65251;51.022;13.736;2023-07-31T00:52:00;99082.59;;;17.01;60.78
76586;BME280;65251;51.022;13.736;2023-07-31T00:52:33;99081.22;;;16.99;61.32
76586;BME280;65251;51.022;13.736;2023-07-31T00:53:03;99087.69;;;16.98;61.54
76586;BME280;65251;51.022;13.736;2023-07-31T00:53:34;99077.75;;;16.98;60.70
76586;BME280;65251;51.022;13.736;2023-07-31T00:54:06;99079.56;;;16.93;61.16
76586;BME280;65251;51.022;13.736;2023-07-31T00:54:38;99083.31;;;16.92;62.19
76586;BME280;65251;51.022;13.736;2023-07-31T00:55:09;99078.50;;;16.94;60.93
76586;BME280;65251;51.022;13.736;2023-07-31T00:55:40;99080.63;;;16.92;60.75
76586;BME280;65251;51.022;13.736;2023-07-31T00:56:12;99077.09;;;16.91;61.29
76586;BME280;65251;51.022;13.736;2023-07-31T00:56:45;99076.88;;;16.93;61.13
76586;BME280;65251;51.022;13.736;2023-07-31T00:57:16;99075.47;;;16.90;63.06
76586;BME280;65251;51.022;13.736;2023-07-31T00:57:48;99075.22;;;16.92;60.59
76586;BME280;65251;51.022;13.736;2023-07-31T00:58:18;99077.09;;;16.91;60.92
76586;BME280;65251;51.022;13.736;2023-07-31T00:58:50;99079.25;;;16.89;61.04
76586;BME280;65251;51.022;13.736;2023-07-31T00:59:21;99079.25;;;16.89;61.48
76586;BME280;65251;51.022;13.736;2023-07-31T00:59:52;99074.66;;;16.90;61.75
76586;BME280;65251;51.022;13.736;2023-07-31T01:00:23;99068.16;;;16.85;61.33
76586;BME280;65251;51.022;13.736;2023-07-31T01:00:54;99074.09;;;16.87;62.28
76586;BME280;65251;51.022;13.736;2023-07-31T01:01:25;99073.03;;;16.88;60.88
76586;BME280;65251;51.022;13.736;2023-07-31T01:01:56;99075.72;;;16.88;61.39
76586;BME280;65251;51.022;13.736;2023-07-31T01:02:27;99077.84;;;16.86;61.54
76586;BME280;65251;51.022;13.736;2023-07-31T01:03:00;99065.47;;;16.85;60.96
76586;BME280;65251;51.022;13.736;2023-07-31T01:03:31;99077.03;;;16.86;61.22
76586;BME280;65251;51.022;13.736;2023-07-31T01:04:02;99070.84;;;16.85;62.43
76586;BME280;65251;51.022;13.736;2023-07-31T01:04:34;99070.03;;;16.85;61.83
76586;BME280;65251;51.022;13.736;2023-07-31T01:05:06;99075.66;;;16.83;60.85
76586;BME280;65251;51.022;13.736;2023-07-31T01:05:49;99071.09;;;16.84;62.16
76586;BME280;65251;51.022;13.736;2023-07-31T01:06:29;99075.91;;;16.82;62.08
76586;BME280;65251;51.022;13.736;2023-07-31T01:07:14;99073.22;;;16.82;61.75
76586;BME280;65251;51.022;13.736;2023-07-31T01:07:55;99072.41;;;16.81;62.14
76586;BME280;65251;51.022;13.736;2023-07-31T01:08:35;99074.03;;;16.82;61.95
76586;BME280;65251;51.022;13.736;2023-07-31T01:09:19;99073.47;;;16.80;60.86
76586;BME280;65251;51.022;13.736;2023-07-31T01:10:01;99063.22;;;16.77;61.72
76586;BME280;65251;51.022;13.736;2023-07-31T01:10:40;99069.72;;;16.81;61.75
76586;BME280;65251;51.022;13.736;2023-07-31T01:11:21;99071.59;;;16.81;60.94
76586;BME280;65251;51.022;13.736;2023-07-31T01:12:00;99066.72;;;16.78;60.88
76586;BME280;65251;51.022;13.736;2023-07-31T01:12:31;99069.41;;;16.78;61.31
76586;BME280;65251;51.022;13.736;2023-07-31T01:13:06;99065.63;;;16.79;60.74
76586;BME280;65251;51.022;13.736;2023-07-31T01:13:36;99069.97;;;16.80;60.50
76586;BME280;65251;51.022;13.736;2023-07-31T01:14:07;99072.34;;;16.76;61.47
76586;BME280;65251;51.022;13.736;2023-07-31T01:14:38;99060.72;;;16.71;61.66
76586;BME280;65251;51.022;13.736;2023-07-31T01:15:10;99065.59;;;16.74;62.30
76586;BME280;65251;51.022;13.736;2023-07-31T01:15:41;99063.41;;;16.71;60.54
76586;BME280;65251;51.022;13.736;2023-07-31T01:16:12;99065.59;;;16.74;62.17
76586;BME280;65251;51.022;13.736;2023-07-31T01:16:43;99066.91;;;16.71;61.29
76586;BME280;65251;51.022;13.736;2023-07-31T01:17:14;99063.97;;;16.73;62.01
76586;BME280;65251;51.022;13.736;2023-07-31T01:17:45;99060.16;;;16.69;61.27
76586;BME280;65251;51.022;13.736;2023-07-31T01:18:16;99060.16;;;16.69;61.22
76586;BME280;65251;51.022;13.736;2023-07-31T01:18:47;99061.78;;;16.70;62.67
76586;BME280;65251;51.022;13.736;2023-07-31T01:19:22;99062.03;;;16.68;62.70
76586;BME280;65251;51.022;13.736;2023-07-31T01:19:56;99058.25;;;16.69;62.35
76586;BME280;65251;51.022;13.736;2023-07-31T01:20:31;99060.16;;;16.69;62.57
76586;BME280;65251;51.022;13.736;2023-07-31T01:21:21;99061.44;;;16.66;61.75
76586;BME280;65251;51.022;13.736;2023-07-31T01:22:16;99058.75;;;16.66;61.97
76586;BME280;65251;51.022;13.736;2023-07-31T01:24:22;99063.31;;;16.66;61.24
76586;BME280;65251;51.022;13.736;2023-07-31T01:25:05;99056.31;;;16.65;62.39
76586;BME280;65251;51.022;13.736;2023-07-31T01:26:00;99063.56;;;16.64;62.25
76586;BME280;65251;51.022;13.736;2023-07-31T01:26:36;99047.84;;;16.56;62.35
76586;BME280;65251;51.022;13.736;2023-07-31T01:27:13;99058.09;;;16.59;61.62
76586;BME280;65251;51.022;13.736;2023-07-31T01:27:53;99059.19;;;16.58;61.95
76586;BME280;65251;51.022;13.736;2023-07-31T01:28:35;99059.44;;;16.57;62.13
76586;BME280;65251;51.022;13.736;2023-07-31T01:29:15;99055.59;;;16.52;62.22
76586;BME280;65251;51.022;13.736;2023-07-31T01:29:53;99065.06;;;16.55;63.38
76586;BME280;65251;51.022;13.736;2023-07-31T01:30:33;99064.47;;;16.53;62.56
76586;BME280;65251;51.022;13.736;2023-07-31T01:31:07;99062.03;;;16.51;62.06
76586;BME280;65251;51.022;13.736;2023-07-31T01:31:42;99060.97;;;16.52;63.28
76586;BME280;65251;51.022;13.736;2023-07-31T01:32:16;99060.41;;;16.50;62.67
76586;BME280;65251;51.022;13.736;2023-07-31T01:32:51;99060.97;;;16.52;63.54
76586;BME280;65251;51.022;13.736;2023-07-31T01:33:23;99054.78;;;16.52;63.32
76586;BME280;65251;51.022;13.736;2023-07-31T01:33:57;99065.28;;;16.53;61.61
76586;BME280;65251;51.022;13.736;2023-07-31T01:34:32;99063.41;;;16.54;63.27
76586;BME280;65251;51.022;13.736;2023-07-31T01:35:05;99059.91;;;16.53;61.85
76586;BME280;65251;51.022;13.736;2023-07-31T01:35:37;99065.28;;;16.53;63.06
76586;BME280;65251;51.022;13.736;2023-07-31T01:36:08;99071.16;;;16.50;63.47
76586;BME280;65251;51.022;13.736;2023-07-31T01:36:40;99059.91;;;16.53;61.98
76586;BME280;65251;51.022;13.736;2023-07-31T01:37:11;99060.97;;;16.52;63.67
76586;BME280;65251;51.022;13.736;2023-07-31T01:37:42;99054.22;;;16.50;62.40
76586;BME280;65251;51.022;13.736;2023-07-31T01:38:13;99063.91;;;16.51;63.42
76586;BME280;65251;51.022;13.736;2023-07-31T01:38:44;99060.66;;;16.49;62.75
76586;BME280;65251;51.022;13.736;2023-07-31T01:39:15;99064.97;;;16.50;63.61
76586;BME280;65251;51.022;13.736;2023-07-31T01:39:45;99057.97;;;16.49;62.84
76586;BME280;65251;51.022;13.736;2023-07-31T01:40:17;99058.78;;;16.49;62.80
76586;BME280;65251;51.022;13.736;2023-07-31T01:40:51;99060.91;;;16.47;62.21
76586;BME280;65251;51.022;13.736;2023-07-31T01:41:24;99054.13;;;16.45;62.59
76586;BME280;65251;51.022;13.736;2023-07-31T01:41:54;99050.63;;;16.44;64.03
76586;BME280;65251;51.022;13.736;2023-07-31T01:42:26;99060.56;;;16.44;63.33
76586;BME280;65251;51.022;13.736;2023-07-31T01:42:57;99060.81;;;16.42;63.27
76586;BME280;65251;51.022;13.736;2023-07-31T01:43:27;99054.13;;;16.45;63.41
76586;BME280;65251;51.022;13.736;2023-07-31T01:43:58;99053.31;;;16.44;62.90
76586;BME280;65251;51.022;13.736;2023-07-31T01:44:30;99057.63;;;16.45;62.46
76586;BME280;65251;51.022;13.736;2023-07-31T01:45:01;99058.13;;;16.42;63.96
76586;BME280;65251;51.022;13.736;2023-07-31T01:45:31;99060.81;;;16.42;64.23
76586;BME280;65251;51.022;13.736;2023-07-31T01:46:03;99054.06;;;16.40;63.42
76586;BME280;65251;51.022;13.736;2023-07-31T01:46:34;99060.25;;;16.40;64.15
76586;BME280;65251;51.022;13.736;2023-07-31T01:47:05;99057.31;;;16.42;62.88
76586;BME280;65251;51.022;13.736;2023-07-31T01:47:36;99051.38;;;16.40;62.94
76586;BME280;65251;51.022;13.736;2023-07-31T01:48:08;99052.72;;;16.37;63.93
76586;BME280;65251;51.022;13.736;2023-07-31T01:48:38;99057.03;;;16.38;62.38
76586;BME280;65251;51.022;13.736;2023-07-31T01:49:09;99047.56;;;16.36;64.24
76586;BME280;65251;51.022;13.736;2023-07-31T01:49:40;99051.31;;;16.35;62.88
76586;BME280;65251;51.022;13.736;2023-07-31T01:50:12;99050.50;;;16.34;62.68
76586;BME280;65251;51.022;13.736;2023-07-31T01:50:43;99054.59;;;16.37;63.41
76586;BME280;65251;51.022;13.736;2023-07-31T01:51:13;99049.44;;;16.35;63.61
76586;BME280;65251;51.022;13.736;2023-07-31T01:51:44;99051.31;;;16.35;62.58
76586;BME280;65251;51.022;13.736;2023-07-31T01:52:16;99040.06;;;16.38;64.03
76586;BME280;65251;51.022;13.736;2023-07-31T01:52:46;99048.13;;;16.38;63.12
76586;BME280;65251;51.022;13.736;2023-07-31T01:53:17;99047.31;;;16.37;64.48
76586;BME280;65251;51.022;13.736;2023-07-31T01:53:48;99042.75;;;16.38;62.49
76586;BME280;65251;51.022;13.736;2023-07-31T01:54:18;99052.72;;;16.37;62.57
76586;BME280;65251;51.022;13.736;2023-07-31T01:54:50;99048.97;;;16.38;62.73
76586;BME280;65251;51.022;13.736;2023-07-31T01:55:21;99042.50;;;16.39;63.75
76586;BME280;65251;51.022;13.736;2023-07-31T01:55:51;99043.56;;;16.38;64.32
76586;BME280;65251;51.022;13.736;2023-07-31T01:56:24;99039.56;;;16.41;63.88
76586;BME280;65251;51.022;13.736;2023-07-31T01:56:55;99040.13;;;16.43;61.94
76586;BME280;65251;51.022;13.736;2023-07-31T01:57:26;99047.13;;;16.44;62.04
76586;BME280;65251;51.022;13.736;2023-07-31T01:57:57;99046.06;;;16.45;63.06
76586;BME280;65251;51.022;13.736;2023-07-31T01:58:27;99038.44;;;16.37;64.05
76586;BME280;65251;51.022;13.736;2023-07-31T01:58:59;99039.31;;;16.42;64.04
76586;BME280;65251;51.022;13.736;2023-07-31T01:59:30;99046.06;;;16.45;63.84
76586;BME280;65251;51.022;13.736;2023-07-31T02:00:00;99040.44;;;16.46;62.54
76586;BME280;65251;51.022;13.736;2023-07-31T02:00:31;99041.00;;;16.48;63.37
76586;BME280;65251;51.022;13.736;2023-07-31T02:01:03;99043.47;;;16.50;61.55
76586;BME280;65251;51.022;13.736;2023-07-31T02:01:33;99042.97;;;16.53;61.47
76586;BME280;65251;51.022;13.736;2023-07-31T02:02:05;99048.34;;;16.53;62.22
76586;BME280;65251;51.022;13.736;2023-07-31T02:02:36;99042.16;;;16.52;61.33
76586;BME280;65251;51.022;13.736;2023-07-31T02:03:07;99039.78;;;16.56;61.55
76586;BME280;65251;51.022;13.736;2023-07-31T02:03:38;99044.63;;;16.59;62.93
76586;BME280;65251;51.022;13.736;2023-07-31T02:04:09;99045.97;;;16.57;61.78
76586;BME280;65251;51.022;13.736;2023-07-31T02:04:39;99037.66;;;16.58;61.69
76586;BME280;65251;51.022;13.736;2023-07-31T02:05:11;99040.03;;;16.54;62.05
76586;BME280;65251;51.022;13.736;2023-07-31T02:05:44;99043.81;;;16.59;62.48
76586;BME280;65251;51.022;13.736;2023-07-31T02:06:15;99043.31;;;16.62;62.33
76586;BME280;65251;51.022;13.736;2023-07-31T02:06:46;99040.41;;;16.63;62.24
76586;BME280;65251;51.022;13.736;2023-07-31T02:07:17;99043.94;;;16.64;62.68
76586;BME280;65251;51.022;13.736;2023-07-31T02:07:48;99044.25;;;16.67;61.62
76586;BME280;65251;51.022;13.736;2023-07-31T02:08:19;99045.38;;;16.71;62.08
76586;BME280;65251;51.022;13.736;2023-07-31T02:08:50;99036.50;;;16.71;63.29
76586;BME280;65251;51.022;13.736;2023-07-31T02:09:20;99036.50;;;16.71;61.30
76586;BME280;65251;51.022;13.736;2023-07-31T02:09:52;99034.63;;;16.71;62.43
76586;BME280;65251;51.022;13.736;2023-07-31T02:10:24;99037.31;;;16.71;60.80
76586;BME280;65251;51.022;13.736;2023-07-31T02:10:55;99042.44;;;16.73;61.79
76586;BME280;65251;51.022;13.736;2023-07-31T02:11:27;99033.31;;;16.74;62.66
76586;BME280;65251;51.022;13.736;2023-07-31T02:11:59;99039.50;;;16.74;62.25
76586;BME280;65251;51.022;13.736;2023-07-31T02:12:30;99033.63;;;16.77;62.24
76586;BME280;65251;51.022;13.736;2023-07-31T02:13:02;99036.84;;;16.79;62.35
76586;BME280;65251;51.022;13.736;2023-07-31T02:13:34;99032.84;;;16.82;62.04
76586;BME280;65251;51.022;13.736;2023-07-31T02:14:05;99036.09;;;16.84;61.82
76586;BME280;65251;51.022;13.736;2023-07-31T02:14:36;99036.66;;;16.86;60.20
76586;BME280;65251;51.022;13.736;2023-07-31T02:15:10;99038.06;;;16.88;61.44
76586;BME280;65251;51.022;13.736;2023-07-31T02:15:41;99032.66;;;16.88;61.10
76586;BME280;65251;51.022;13.736;2023-07-31T02:16:12;99033.72;;;16.87;60.61
76586;BME280;65251;51.022;13.736;2023-07-31T02:16:43;99032.66;;;16.88;60.30
76586;BME280;65251;51.022;13.736;2023-07-31T02:17:14;99037.56;;;16.92;61.04
76586;BME280;65251;51.022;13.736;2023-07-31T02:17:44;99034.63;;;16.93;60.09
76586;BME280;65251;51.022;13.736;2023-07-31T02:18:16;99031.41;;;16.96;60.11
76586;BME280;65251;51.022;13.736;2023-07-31T02:18:47;99040.06;;;16.98;60.35
76586;BME280;65251;51.022;13.736;2023-07-31T02:19:17;99036.56;;;16.98;60.41
76586;BME280;65251;51.022;13.736;2023-07-31T02:19:48;99032.78;;;16.99;60.11
76586;BME280;65251;51.022;13.736;2023-07-31T02:20:20;99033.59;;;16.99;59.48
76586;BME280;65251;51.022;13.736;2023-07-31T02:20:51;99039.78;;;17.00;59.59
76586;BME280;65251;51.022;13.736;2023-07-31T02:21:22;99033.09;;;17.02;60.93
76586;BME280;65251;51.022;13.736;2023-07-31T02:21:53;99032.28;;;17.02;61.02
76586;BME280;65251;51.022;13.736;2023-07-31T02:22:25;99041.72;;;17.04;59.99
76586;BME280;65251;51.022;13.736;2023-07-31T02:22:55;99037.72;;;17.07;60.37
76586;BME280;65251;51.022;13.736;2023-07-31T02:23:26;99033.41;;;17.06;59.04
76586;BME280;65251;51.022;13.736;2023-07-31T02:23:57;99039.09;;;17.09;60.03
76586;BME280;65251;51.022;13.736;2023-07-31T02:24:28;99033.72;;;17.09;59.09
76586;BME280;65251;51.022;13.736;2023-07-31T02:24:59;99041.53;;;17.11;60.56
76586;BME280;65251;51.022;13.736;2023-07-31T02:25:30;99039.09;;;17.09;59.94
76586;BME280;65251;51.022;13.736;2023-07-31T02:26:01;99037.78;;;17.12;59.69
76586;BME280;65251;51.022;13.736;2023-07-31T02:26:34;99032.66;;;17.10;59.47
76586;BME280;65251;51.022;13.736;2023-07-31T02:27:05;99034.03;;;17.13;59.35
76586;BME280;65251;51.022;13.736;2023-07-31T02:27:36;99033.22;;;17.12;59.83
76586;BME280;65251;51.022;13.736;2023-07-31T02:28:06;99036.47;;;17.14;59.68
76586;BME280;65251;51.022;13.736;2023-07-31T02:28:38;99033.53;;;17.16;60.08
76586;BME280;65251;51.022;13.736;2023-07-31T02:29:09;99029.50;;;17.18;59.34
76586;BME280;65251;51.022;13.736;2023-07-31T02:29:40;99028.97;;;17.16;59.84
76586;BME280;65251;51.022;13.736;2023-07-31T02:30:11;99028.69;;;17.18;59.35
76586;BME280;65251;51.022;13.736;2023-07-31T02:30:44;99033.28;;;17.17;59.62
76586;BME280;65251;51.022;13.736;2023-07-31T02:31:16;99036.22;;;17.16;59.47
76586;BME280;65251;51.022;13.736;2023-07-31T02:31:46;99041.34;;;17.17;59.53
76586;BME280;65251;51.022;13.736;2023-07-31T02:32:18;99034.09;;;17.18;59.71
76586;BME280;65251;51.022;13.736;2023-07-31T02:32:49;99031.91;;;17.15;60.26
76586;BME280;65251;51.022;13.736;2023-07-31T02:33:19;99036.72;;;17.13;60.78
76586;BME280;65251;51.022;13.736;2023-07-31T02:33:50;99034.84;;;17.13;61.08
76586;BME280;65251;51.022;13.736;2023-07-31T02:34:22;99029.22;;;17.15;60.71
76586;BME280;65251;51.022;13.736;2023-07-31T02:34:52;99040.22;;;17.13;60.96
76586;BME280;65251;51.022;13.736;2023-07-31T02:35:23;99036.97;;;17.11;60.59
76586;BME280;65251;51.022;13.736;2023-07-31T02:35:54;99035.09;;;17.12;60.82
76586;BME280;65251;51.022;13.736;2023-07-31T02:36:26;99030.53;;;17.12;59.89
76586;BME280;65251;51.022;13.736;2023-07-31T02:36:56;99035.41;;;17.15;60.79
76586;BME280;65251;51.022;13.736;2023-07-31T02:37:27;99036.47;;;17.14;60.62
76586;BME280;65251;51.022;13.736;2023-07-31T02:37:59;99035.41;;;17.15;59.37
76586;BME280;65251;51.022;13.736;2023-07-31T02:38:30;99037.28;;;17.15;59.37
76586;BME280;65251;51.022;13.736;2023-07-31T02:39:01;99036.47;;;17.14;59.46
76586;BME280;65251;51.022;13.736;2023-07-31T02:39:32;99028.13;;;17.16;59.67
76586;BME280;65251;51.022;13.736;2023-07-31T02:40:03;99038.34;;;17.14;59.84
76586;BME280;65251;51.022;13.736;2023-07-31T02:40:35;99034.34;;;17.16;60.43
76586;BME280;65251;51.022;13.736;2023-07-31T02:41:06;99033.81;;;17.19;59.46
76586;BME280;65251;51.022;13.736;2023-07-31T02:41:38;99030.88;;;17.21;58.90
76586;BME280;65251;51.022;13.736;2023-07-31T02:42:08;99027.09;;;17.22;58.67
76586;BME280;65251;51.022;13.736;2023-07-31T02:42:40;99039.75;;;17.21;59.30
76586;BME280;65251;51.022;13.736;2023-07-31T02:43:11;99030.63;;;17.22;59.61
76586;BME280;65251;51.022;13.736;2023-07-31T02:43:41;99038.69;;;17.22;60.25
76586;BME280;65251;51.022;13.736;2023-07-31T02:44:12;99037.88;;;17.22;61.61
76586;BME280;65251;51.022;13.736;2023-07-31T02:44:44;99032.75;;;17.20;59.82
76586;BME280;65251;51.022;13.736;2023-07-31T02:45:15;99030.03;;;17.20;59.99
76586;BME280;65251;51.022;13.736;2023-07-31T02:45:51;99028.97;;;17.16;60.48
76586;BME280;65251;51.022;13.736;2023-07-31T02:46:23;99032.47;;;17.17;60.99
76586;BME280;65251;51.022;13.736;2023-07-31T02:46:55;99034.03;;;17.13;61.85
76586;BME280;65251;51.022;13.736;2023-07-31T02:47:25;99027.00;;;17.12;59.86
76586;BME280;65251;51.022;13.736;2023-07-31T02:47:57;99029.47;;;17.13;60.68
76586;BME280;65251;51.022;13.736;2023-07-31T02:48:28;99030.28;;;17.14;60.51
76586;BME280;65251;51.022;13.736;2023-07-31T02:48:59;99028.88;;;17.11;60.50
76586;BME280;65251;51.022;13.736;2023-07-31T02:49:29;99034.84;;;17.13;60.42
76586;BME280;65251;51.022;13.736;2023-07-31T02:50:01;99036.66;;;17.08;60.29
76586;BME280;65251;51.022;13.736;2023-07-31T02:50:32;99028.00;;;17.06;59.33
76586;BME280;65251;51.022;13.736;2023-07-31T02:51:03;99025.56;;;17.04;59.43
76586;BME280;65251;51.022;13.736;2023-07-31T02:51:34;99029.34;;;17.03;59.68
76586;BME280;65251;51.022;13.736;2023-07-31T02:52:06;99032.28;;;17.02;59.60
76586;BME280;65251;51.022;13.736;2023-07-31T02:52:37;99024.44;;;17.00;60.64
76586;BME280;65251;51.022;13.736;2023-07-31T02:53:07;99027.13;;;17.00;61.13
76586;BME280;65251;51.022;13.736;2023-07-31T02:53:39;99032.00;;;16.98;60.62